createdAt,value
2023-02-06T00:00:23.285Z,19.30
2023-02-06T00:01:23.246Z,20.70
2023-02-06T00:02:23.249Z,19.90
2023-02-06T00:03:23.232Z,19.30
2023-02-06T00:04:23.215Z,18.40
2023-02-06T00:05:23.241Z,18.50
2023-02-06T00:06:23.212Z,18.70
2023-02-06T00:07:23.208Z,18.70
2023-02-06T00:08:23.216Z,18.80
2023-02-06T00:09:23.214Z,19.00
2023-02-06T00:10:23.159Z,18.60
2023-02-06T00:11:23.172Z,18.60
2023-02-06T00:12:23.133Z,19.10
2023-02-06T00:13:23.130Z,18.40
2023-02-06T00:14:23.120Z,19.30
2023-02-06T00:15:23.095Z,19.20
2023-02-06T00:16:23.117Z,18.20
2023-02-06T00:17:23.108Z,18.70
2023-02-06T00:18:23.077Z,19.00
2023-02-06T00:19:23.056Z,18.50
2023-02-06T00:20:23.056Z,17.90
2023-02-06T00:21:23.087Z,18.30
2023-02-06T00:22:23.025Z,19.00
2023-02-06T00:23:23.014Z,19.60
2023-02-06T00:24:23.030Z,18.00
2023-02-06T00:25:22.986Z,18.60
2023-02-06T00:26:22.998Z,17.70
2023-02-06T00:27:22.985Z,18.90
2023-02-06T00:28:22.955Z,18.70
2023-02-06T00:29:22.965Z,18.60
2023-02-06T00:30:22.964Z,17.80
2023-02-06T00:31:22.966Z,18.90
2023-02-06T00:32:22.949Z,18.60
2023-02-06T00:33:22.898Z,18.50
2023-02-06T00:34:22.906Z,17.90
2023-02-06T00:35:22.879Z,18.80
2023-02-06T00:36:22.887Z,18.40
2023-02-06T00:37:22.861Z,19.10
2023-02-06T00:38:22.892Z,17.90
2023-02-06T00:39:22.851Z,17.80
2023-02-06T00:40:22.831Z,17.80
2023-02-06T00:41:22.871Z,18.20
2023-02-06T00:42:22.800Z,17.30
2023-02-06T00:43:22.793Z,17.60
2023-02-06T00:44:22.790Z,17.50
2023-02-06T00:45:22.782Z,17.30
2023-02-06T00:46:22.818Z,16.80
2023-02-06T00:47:22.755Z,15.90
2023-02-06T00:48:22.775Z,16.00
2023-02-06T00:49:22.728Z,16.20
2023-02-06T00:50:22.761Z,15.40
2023-02-06T00:51:22.728Z,15.00
2023-02-06T00:52:22.703Z,14.60
2023-02-06T00:53:22.715Z,14.70
2023-02-06T00:54:22.683Z,15.40
2023-02-06T00:55:22.677Z,14.10
2023-02-06T00:56:22.673Z,15.10
2023-02-06T00:57:22.655Z,16.40
2023-02-06T00:58:22.665Z,16.00
2023-02-06T00:59:22.628Z,16.60
2023-02-06T01:00:22.652Z,17.10
2023-02-06T01:01:22.676Z,16.60
2023-02-06T01:02:22.600Z,15.70
2023-02-06T01:03:22.581Z,16.30
2023-02-06T01:04:22.576Z,15.90
2023-02-06T01:05:22.556Z,15.40
2023-02-06T01:06:22.568Z,15.20
2023-02-06T01:07:22.541Z,14.90
2023-02-06T01:08:22.530Z,14.00
2023-02-06T01:09:22.507Z,14.90
2023-02-06T01:10:22.519Z,14.90
2023-02-06T01:11:22.523Z,14.20
2023-02-06T01:12:22.487Z,14.00
2023-02-06T01:13:22.472Z,13.00
2023-02-06T01:14:22.459Z,13.60
2023-02-06T01:15:22.447Z,13.10
2023-02-06T01:16:22.495Z,13.10
2023-02-06T01:17:22.440Z,12.70
2023-02-06T01:18:22.406Z,14.20
2023-02-06T01:19:22.406Z,14.10
2023-02-06T01:20:22.393Z,13.70
2023-02-06T01:21:22.415Z,14.30
2023-02-06T01:22:22.369Z,13.60
2023-02-06T01:23:22.353Z,13.00
2023-02-06T01:24:22.345Z,13.30
2023-02-06T01:25:22.343Z,13.00
2023-02-06T01:26:22.343Z,12.40
2023-02-06T01:27:22.318Z,12.70
2023-02-06T01:28:22.341Z,13.10
2023-02-06T01:29:22.290Z,12.40
2023-02-06T01:30:22.373Z,12.90
2023-02-06T01:31:22.306Z,13.30
2023-02-06T01:32:22.255Z,11.60
2023-02-06T01:33:22.257Z,12.20
2023-02-06T01:34:22.264Z,11.10
2023-02-06T01:35:22.229Z,12.10
2023-02-06T01:36:22.226Z,11.50
2023-02-06T01:37:22.200Z,12.20
2023-02-06T01:38:22.188Z,11.70
2023-02-06T01:39:22.199Z,12.20
2023-02-06T01:40:22.162Z,12.40
2023-02-06T01:41:22.172Z,11.40
2023-02-06T01:42:22.145Z,11.00
2023-02-06T01:43:22.159Z,11.20
2023-02-06T01:44:22.134Z,11.10
2023-02-06T01:45:22.114Z,10.60
2023-02-06T01:46:22.155Z,11.20
2023-02-06T01:47:22.096Z,12.50
2023-02-06T01:48:22.084Z,11.40
2023-02-06T01:49:22.083Z,12.10
2023-02-06T01:50:22.050Z,11.50
2023-02-06T01:51:22.088Z,11.10
2023-02-06T01:52:22.033Z,12.20
2023-02-06T01:53:22.027Z,11.10
2023-02-06T01:54:22.021Z,11.60
2023-02-06T01:55:22.031Z,12.40
2023-02-06T01:56:22.019Z,12.20
2023-02-06T01:57:21.971Z,12.00
2023-02-06T01:58:21.981Z,11.50
2023-02-06T01:59:21.978Z,11.90
2023-02-06T02:00:21.962Z,12.00
2023-02-06T02:01:21.968Z,12.80
2023-02-06T02:02:22.012Z,12.00
2023-02-06T02:03:21.951Z,12.20
2023-02-06T02:04:21.902Z,11.60
2023-02-06T02:05:21.902Z,12.90
2023-02-06T02:06:21.904Z,12.60
2023-02-06T02:07:21.869Z,12.40
2023-02-06T02:08:21.863Z,11.00
2023-02-06T02:09:21.861Z,12.80
2023-02-06T02:10:21.840Z,11.70
2023-02-06T02:11:22.583Z,11.50
2023-02-06T02:12:21.825Z,11.30
2023-02-06T02:13:21.809Z,11.80
2023-02-06T02:14:21.796Z,12.30
2023-02-06T02:15:21.797Z,11.40
2023-02-06T02:16:21.816Z,10.50
2023-02-06T02:17:21.763Z,11.20
2023-02-06T02:18:21.758Z,11.90
2023-02-06T02:19:21.742Z,11.80
2023-02-06T02:20:21.742Z,11.00
2023-02-06T02:21:21.745Z,11.00
2023-02-06T02:22:21.709Z,10.50
2023-02-06T02:23:21.701Z,11.10
2023-02-06T02:24:21.700Z,11.00
2023-02-06T02:25:21.676Z,10.70
2023-02-06T02:26:21.696Z,10.60
2023-02-06T02:27:21.654Z,11.30
2023-02-06T02:28:21.660Z,10.30
2023-02-06T02:29:21.641Z,10.60
2023-02-06T02:30:21.674Z,10.00
2023-02-06T02:31:21.694Z,10.30
2023-02-06T02:32:21.603Z,9.60
2023-02-06T02:33:21.606Z,9.50
2023-02-06T02:34:21.594Z,10.40
2023-02-06T02:35:21.578Z,10.30
2023-02-06T02:36:21.615Z,10.60
2023-02-06T02:37:21.576Z,9.90
2023-02-06T02:38:21.543Z,9.90
2023-02-06T02:39:21.536Z,11.10
2023-02-06T02:40:21.542Z,11.20
2023-02-06T02:41:21.524Z,9.90
2023-02-06T02:42:21.601Z,10.50
2023-02-06T02:43:21.494Z,10.50
2023-02-06T02:44:21.496Z,10.00
2023-02-06T02:45:21.466Z,9.70
2023-02-06T02:46:21.510Z,10.30
2023-02-06T02:47:21.451Z,9.90
2023-02-06T02:48:21.430Z,9.60
2023-02-06T02:49:21.433Z,9.30
2023-02-06T02:50:21.406Z,10.20
2023-02-06T02:51:21.402Z,9.80
2023-02-06T02:52:21.411Z,8.80
2023-02-06T02:53:21.376Z,9.50
2023-02-06T02:54:21.379Z,8.70
2023-02-06T02:55:21.351Z,9.30
2023-02-06T02:56:21.354Z,8.90
2023-02-06T02:57:21.345Z,8.60
2023-02-06T02:58:21.339Z,8.80
2023-02-06T02:59:21.331Z,9.40
2023-02-06T03:00:21.294Z,8.80
2023-02-06T03:01:21.350Z,8.80
2023-02-06T03:02:21.322Z,8.60
2023-02-06T03:03:21.269Z,9.00
2023-02-06T03:04:21.250Z,8.90
2023-02-06T03:05:21.241Z,9.50
2023-02-06T03:06:21.259Z,8.40
2023-02-06T03:07:21.238Z,9.00
2023-02-06T03:08:21.211Z,9.60
2023-02-06T03:09:21.228Z,7.70
2023-02-06T03:10:21.186Z,8.20
2023-02-06T03:11:21.173Z,9.60
2023-02-06T03:12:21.195Z,8.10
2023-02-06T03:13:21.150Z,9.40
2023-02-06T03:14:21.150Z,9.30
2023-02-06T03:15:21.133Z,8.80
2023-02-06T03:16:21.169Z,8.60
2023-02-06T03:17:21.123Z,9.10
2023-02-06T03:18:21.106Z,8.90
2023-02-06T03:19:21.112Z,8.50
2023-02-06T03:20:21.081Z,8.40
2023-02-06T03:21:21.070Z,8.80
2023-02-06T03:22:21.073Z,8.50
2023-02-06T03:23:21.054Z,7.90
2023-02-06T03:24:21.028Z,7.30
2023-02-06T03:25:21.029Z,7.80
2023-02-06T03:26:21.019Z,8.00
2023-02-06T03:27:21.014Z,8.40
2023-02-06T03:28:20.988Z,7.80
2023-02-06T03:29:20.987Z,8.20
2023-02-06T03:30:21.001Z,7.90
2023-02-06T03:31:21.015Z,8.20
2023-02-06T03:32:20.962Z,8.20
2023-02-06T03:33:20.955Z,8.70
2023-02-06T03:34:20.955Z,8.10
2023-02-06T03:35:20.933Z,8.30
2023-02-06T03:36:20.934Z,8.00
2023-02-06T03:37:20.928Z,8.40
2023-02-06T03:38:20.941Z,8.30
2023-02-06T03:39:20.879Z,8.10
2023-02-06T03:40:20.866Z,8.30
2023-02-06T03:41:20.846Z,7.80
2023-02-06T03:42:20.850Z,8.60
2023-02-06T03:43:20.828Z,8.00
2023-02-06T03:44:20.815Z,8.50
2023-02-06T03:45:20.802Z,8.70
2023-02-06T03:46:20.865Z,7.40
2023-02-06T03:47:20.808Z,7.50
2023-02-06T03:48:20.763Z,8.30
2023-02-06T03:49:20.773Z,8.00
2023-02-06T03:50:20.752Z,7.60
2023-02-06T03:51:20.742Z,9.00
2023-02-06T03:52:20.742Z,8.00
2023-02-06T03:53:20.713Z,8.10
2023-02-06T03:54:20.711Z,7.80
2023-02-06T03:55:20.700Z,7.50
2023-02-06T03:56:20.693Z,8.00
2023-02-06T03:57:20.696Z,7.30
2023-02-06T03:58:20.681Z,8.10
2023-02-06T03:59:20.659Z,8.30
2023-02-06T04:00:20.675Z,7.30
2023-02-06T04:01:20.662Z,7.00
2023-02-06T04:02:20.691Z,7.10
2023-02-06T04:03:20.622Z,6.50
2023-02-06T04:04:20.606Z,7.70
2023-02-06T04:05:20.591Z,6.80
2023-02-06T04:06:20.598Z,7.60
2023-02-06T04:07:20.588Z,7.70
2023-02-06T04:08:20.575Z,6.60
2023-02-06T04:09:20.557Z,6.70
2023-02-06T04:10:20.542Z,7.10
2023-02-06T04:11:20.532Z,6.40
2023-02-06T04:12:20.540Z,7.30
2023-02-06T04:13:20.543Z,6.20
2023-02-06T04:14:20.504Z,6.50
2023-02-06T04:15:20.515Z,6.60
2023-02-06T04:16:20.497Z,7.40
2023-02-06T04:17:38.446Z,7.80
2023-02-06T04:18:20.465Z,6.70
2023-02-06T04:19:20.447Z,7.20
2023-02-06T04:20:20.424Z,7.50
2023-02-06T04:21:20.418Z,6.90
2023-02-06T04:22:20.432Z,7.30
2023-02-06T04:23:20.414Z,8.10
2023-02-06T04:24:20.389Z,7.40
2023-02-06T04:25:20.380Z,7.10
2023-02-06T04:26:20.362Z,7.00
2023-02-06T04:27:20.438Z,7.10
2023-02-06T04:28:20.389Z,7.50
2023-02-06T04:29:20.331Z,7.50
2023-02-06T04:30:20.403Z,6.50
2023-02-06T04:31:20.319Z,6.80
2023-02-06T04:32:20.322Z,7.60
2023-02-06T04:33:20.287Z,7.00
2023-02-06T04:34:20.274Z,6.90
2023-02-06T04:35:20.271Z,7.30
2023-02-06T04:36:20.259Z,6.60
2023-02-06T04:37:20.271Z,7.20
2023-02-06T04:38:20.231Z,7.10
2023-02-06T04:39:20.223Z,6.80
2023-02-06T04:40:20.211Z,7.40
2023-02-06T04:41:20.187Z,7.10
2023-02-06T04:42:20.239Z,7.00
2023-02-06T04:43:20.194Z,7.60
2023-02-06T04:44:20.177Z,7.10
2023-02-06T04:45:20.166Z,6.70
2023-02-06T04:46:20.254Z,7.90
2023-02-06T04:47:20.160Z,6.60
2023-02-06T04:48:20.126Z,7.90
2023-02-06T04:49:20.109Z,7.20
2023-02-06T04:50:20.129Z,7.00
2023-02-06T04:51:20.086Z,7.40
2023-02-06T04:52:20.093Z,7.30
2023-02-06T04:53:20.081Z,7.20
2023-02-06T04:54:20.066Z,7.50
2023-02-06T04:55:20.048Z,7.20
2023-02-06T04:56:20.043Z,7.60
2023-02-06T04:57:20.043Z,6.90
2023-02-06T04:58:20.011Z,7.00
2023-02-06T04:59:20.021Z,6.70
2023-02-06T05:00:19.988Z,7.00
2023-02-06T05:01:20.007Z,7.00
2023-02-06T05:02:27.640Z,6.90
2023-02-06T05:03:20.000Z,7.60
2023-02-06T05:04:19.938Z,8.00
2023-02-06T05:05:19.937Z,7.00
2023-02-06T05:06:19.920Z,7.30
2023-02-06T05:07:19.958Z,6.90
2023-02-06T05:08:19.953Z,7.00
2023-02-06T05:09:19.970Z,7.20
2023-02-06T05:10:19.904Z,7.20
2023-02-06T05:11:19.914Z,6.80
2023-02-06T05:12:19.904Z,6.60
2023-02-06T05:13:19.856Z,7.70
2023-02-06T05:14:19.856Z,7.40
2023-02-06T05:15:19.827Z,7.20
2023-02-06T05:16:19.880Z,7.80
2023-02-06T05:17:19.843Z,7.80
2023-02-06T05:18:19.804Z,7.40
2023-02-06T05:19:19.785Z,7.30
2023-02-06T05:20:19.766Z,7.20
2023-02-06T05:21:19.785Z,7.50
2023-02-06T05:22:19.773Z,7.00
2023-02-06T05:23:19.762Z,8.00
2023-02-06T05:24:19.756Z,8.10
2023-02-06T05:25:19.772Z,7.60
2023-02-06T05:26:19.717Z,6.80
2023-02-06T05:27:19.753Z,8.00
2023-02-06T05:28:19.727Z,7.20
2023-02-06T05:29:19.724Z,7.20
2023-02-06T05:30:19.708Z,7.30
2023-02-06T05:31:20.062Z,7.90
2023-02-06T05:32:19.672Z,7.80
2023-02-06T05:33:19.673Z,7.70
2023-02-06T05:34:19.607Z,7.30
2023-02-06T05:35:19.620Z,6.90
2023-02-06T05:36:19.630Z,7.60
2023-02-06T05:37:19.579Z,8.30
2023-02-06T05:38:19.594Z,8.30
2023-02-06T05:39:19.646Z,7.00
2023-02-06T05:40:19.575Z,7.30
2023-02-06T05:41:19.567Z,8.20
2023-02-06T05:42:19.534Z,6.40
2023-02-06T05:43:19.561Z,6.90
2023-02-06T05:44:19.529Z,7.40
2023-02-06T05:45:19.547Z,6.70
2023-02-06T05:46:19.627Z,7.60
2023-02-06T05:47:19.506Z,7.20
2023-02-06T05:48:19.486Z,7.20
2023-02-06T05:49:19.482Z,7.60
2023-02-06T05:50:19.469Z,7.50
2023-02-06T05:51:19.474Z,6.80
2023-02-06T05:52:19.468Z,8.20
2023-02-06T05:53:19.459Z,7.80
2023-02-06T05:54:19.415Z,7.50
2023-02-06T05:55:19.449Z,7.60
2023-02-06T05:56:19.428Z,7.30
2023-02-06T05:57:19.372Z,7.30
2023-02-06T05:58:19.382Z,6.70
2023-02-06T05:59:19.389Z,6.80
2023-02-06T06:00:19.362Z,7.50
2023-02-06T06:01:19.380Z,6.30
2023-02-06T06:02:19.337Z,7.80
2023-02-06T06:03:19.368Z,7.60
2023-02-06T06:04:19.360Z,7.20
2023-02-06T06:05:19.306Z,6.90
2023-02-06T06:06:19.313Z,7.50
2023-02-06T06:07:19.260Z,7.20
2023-02-06T06:08:19.316Z,8.10
2023-02-06T06:09:19.263Z,7.20
2023-02-06T06:10:19.241Z,7.50
2023-02-06T06:11:19.230Z,7.90
2023-02-06T06:12:19.248Z,7.60
2023-02-06T06:13:19.216Z,7.50
2023-02-06T06:14:19.202Z,7.60
2023-02-06T06:15:19.223Z,7.90
2023-02-06T06:16:19.314Z,7.80
2023-02-06T06:17:19.200Z,7.40
2023-02-06T06:18:19.170Z,7.40
2023-02-06T06:19:19.182Z,7.70
2023-02-06T06:20:19.128Z,7.40
2023-02-06T06:21:19.152Z,7.30
2023-02-06T06:22:19.115Z,7.40
2023-02-06T06:23:19.158Z,6.90
2023-02-06T06:24:19.089Z,7.50
2023-02-06T06:25:19.104Z,7.50
2023-02-06T06:26:19.079Z,7.80
2023-02-06T06:27:19.078Z,8.10
2023-02-06T06:28:19.217Z,7.00
2023-02-06T06:29:19.050Z,6.90
2023-02-06T06:30:19.015Z,6.20
2023-02-06T06:31:19.114Z,7.00
2023-02-06T06:32:19.070Z,7.40
2023-02-06T06:33:19.015Z,7.50
2023-02-06T06:34:18.990Z,7.20
2023-02-06T06:35:19.013Z,7.20
2023-02-06T06:36:19.015Z,7.90
2023-02-06T06:37:18.932Z,7.00
2023-02-06T06:38:18.990Z,7.20
2023-02-06T06:39:18.922Z,7.50
2023-02-06T06:40:18.925Z,7.80
2023-02-06T06:41:18.936Z,7.30
2023-02-06T06:42:18.928Z,7.30
2023-02-06T06:43:18.964Z,7.70
2023-02-06T06:44:18.936Z,7.80
2023-02-06T06:45:18.951Z,7.40
2023-02-06T06:46:18.843Z,7.80
2023-02-06T06:47:18.854Z,7.90
2023-02-06T06:48:18.868Z,7.00
2023-02-06T06:49:18.801Z,6.90
2023-02-06T06:50:18.809Z,7.60
2023-02-06T06:51:18.867Z,8.60
2023-02-06T06:52:25.066Z,6.80
2023-02-06T06:53:18.809Z,7.50
2023-02-06T06:54:18.752Z,8.10
2023-02-06T06:55:18.773Z,7.70
2023-02-06T06:56:18.733Z,6.60
2023-02-06T06:57:18.723Z,7.30
2023-02-06T06:58:18.824Z,7.40
2023-02-06T06:59:18.697Z,7.40
2023-02-06T07:00:18.695Z,7.60
2023-02-06T07:01:18.756Z,7.40
2023-02-06T07:02:18.671Z,7.60
2023-02-06T07:03:18.766Z,7.50
2023-02-06T07:04:18.708Z,7.20
2023-02-06T07:05:18.656Z,7.30
2023-02-06T07:06:18.686Z,8.20
2023-02-06T07:07:18.728Z,7.80
2023-02-06T07:08:18.688Z,8.10
2023-02-06T07:09:18.609Z,8.30
2023-02-06T07:10:18.612Z,8.80
2023-02-06T07:11:18.659Z,7.20
2023-02-06T07:12:18.654Z,7.50
2023-02-06T07:13:18.646Z,8.00
2023-02-06T07:14:18.548Z,7.80
2023-02-06T07:15:18.531Z,8.70
2023-02-06T07:16:18.594Z,7.50
2023-02-06T07:17:18.517Z,8.10
2023-02-06T07:18:18.611Z,7.60
2023-02-06T07:19:18.519Z,7.80
2023-02-06T07:20:18.488Z,8.30
2023-02-06T07:21:18.459Z,8.30
2023-02-06T07:22:18.462Z,8.70
2023-02-06T07:23:18.451Z,8.50
2023-02-06T07:24:18.433Z,7.60
2023-02-06T07:25:18.414Z,8.10
2023-02-06T07:26:18.401Z,8.20
2023-02-06T07:27:18.382Z,8.20
2023-02-06T07:28:18.483Z,8.00
2023-02-06T07:29:18.392Z,8.30
2023-02-06T07:30:18.376Z,8.20
2023-02-06T07:31:18.411Z,8.70
2023-02-06T07:32:18.378Z,7.50
2023-02-06T07:33:18.368Z,7.80
2023-02-06T07:34:18.317Z,8.20
2023-02-06T07:35:18.338Z,8.30
2023-02-06T07:36:18.312Z,7.30
2023-02-06T07:37:18.321Z,8.30
2023-02-06T07:38:18.296Z,7.80
2023-02-06T07:39:18.284Z,7.50
2023-02-06T07:40:18.256Z,8.00
2023-02-06T07:41:18.299Z,8.10
2023-02-06T07:42:18.273Z,9.00
2023-02-06T07:43:18.234Z,8.10
2023-02-06T07:44:18.214Z,7.40
2023-02-06T07:45:18.222Z,8.40
2023-02-06T07:46:18.233Z,8.00
2023-02-06T07:47:18.181Z,8.90
2023-02-06T07:48:18.212Z,8.00
2023-02-06T07:49:18.221Z,8.00
2023-02-06T07:50:18.228Z,7.60
2023-02-06T07:51:18.138Z,7.70
2023-02-06T07:52:18.135Z,8.30
2023-02-06T07:53:18.137Z,7.20
2023-02-06T07:54:19.916Z,9.30
2023-02-06T07:55:18.089Z,9.00
2023-02-06T07:56:18.087Z,7.70
2023-02-06T07:57:18.897Z,8.00
2023-02-06T07:58:18.140Z,8.10
2023-02-06T07:59:18.043Z,7.60
2023-02-06T08:00:18.028Z,8.20
2023-02-06T08:01:18.079Z,7.90
2023-02-06T08:02:18.022Z,7.10
2023-02-06T08:03:18.044Z,7.90
2023-02-06T08:04:18.065Z,7.80
2023-02-06T08:05:17.971Z,8.20
2023-02-06T08:06:17.968Z,7.30
2023-02-06T08:07:18.021Z,8.30
2023-02-06T08:08:17.956Z,8.80
2023-02-06T08:09:17.943Z,7.90
2023-02-06T08:10:17.971Z,7.70
2023-02-06T08:11:17.925Z,7.80
2023-02-06T08:12:17.896Z,8.60
2023-02-06T08:13:17.920Z,7.70
2023-02-06T08:14:17.908Z,8.80
2023-02-06T08:15:17.859Z,7.40
2023-02-06T08:16:17.900Z,7.70
2023-02-06T08:17:19.662Z,8.50
2023-02-06T08:18:17.846Z,7.20
2023-02-06T08:19:17.822Z,8.20
2023-02-06T08:20:17.830Z,7.40
2023-02-06T08:21:17.801Z,8.40
2023-02-06T08:22:17.787Z,7.40
2023-02-06T08:23:19.661Z,7.70
2023-02-06T08:24:17.775Z,7.90
2023-02-06T08:25:17.760Z,7.90
2023-02-06T08:26:17.829Z,7.20
2023-02-06T08:27:17.806Z,7.70
2023-02-06T08:28:17.836Z,8.60
2023-02-06T08:29:17.755Z,7.60
2023-02-06T08:30:17.703Z,7.20
2023-02-06T08:31:17.810Z,7.80
2023-02-06T08:32:17.853Z,7.80
2023-02-06T08:33:17.707Z,7.90
2023-02-06T08:34:17.663Z,7.50
2023-02-06T08:35:17.718Z,8.50
2023-02-06T08:36:17.702Z,7.30
2023-02-06T08:37:17.620Z,8.40
2023-02-06T08:38:17.661Z,7.40
2023-02-06T08:39:17.604Z,8.20
2023-02-06T08:40:17.800Z,6.30
2023-02-06T08:41:17.590Z,7.10
2023-02-06T08:42:17.608Z,7.90
2023-02-06T08:43:17.607Z,8.60
2023-02-06T08:44:17.586Z,8.30
2023-02-06T08:45:17.668Z,8.90
2023-02-06T08:46:17.698Z,8.40
2023-02-06T08:47:17.691Z,8.80
2023-02-06T08:48:17.642Z,8.60
2023-02-06T08:49:17.554Z,8.10
2023-02-06T08:50:17.492Z,8.20
2023-02-06T08:51:17.552Z,8.30
2023-02-06T08:52:17.507Z,8.20
2023-02-06T08:53:17.558Z,7.10
2023-02-06T08:54:17.473Z,7.30
2023-02-06T08:55:17.521Z,7.60
2023-02-06T08:56:17.514Z,7.00
2023-02-06T08:57:17.401Z,7.50
2023-02-06T08:58:17.466Z,6.60
2023-02-06T08:59:17.370Z,7.00
2023-02-06T09:00:17.382Z,8.00
2023-02-06T09:01:17.632Z,7.40
2023-02-06T09:02:17.462Z,7.70
2023-02-06T09:03:17.455Z,6.80
2023-02-06T09:04:17.486Z,6.70
2023-02-06T09:05:17.336Z,7.80
2023-02-06T09:06:17.420Z,6.30
2023-02-06T09:07:17.454Z,6.90
2023-02-06T09:08:17.337Z,6.50
2023-02-06T09:09:17.344Z,7.40
2023-02-06T09:10:27.058Z,8.00
2023-02-06T09:11:17.280Z,8.30
2023-02-06T09:12:17.406Z,9.20
2023-02-06T09:13:17.245Z,9.40
2023-02-06T09:14:17.325Z,9.90
2023-02-06T09:15:17.209Z,8.00
2023-02-06T09:16:17.360Z,8.60
2023-02-06T09:17:17.177Z,7.80
2023-02-06T09:18:17.212Z,7.30
2023-02-06T09:19:17.232Z,7.80
2023-02-06T09:20:17.216Z,7.00
2023-02-06T09:21:17.149Z,8.10
2023-02-06T09:22:17.202Z,8.30
2023-02-06T09:23:17.223Z,6.70
2023-02-06T09:24:17.132Z,8.70
2023-02-06T09:25:17.162Z,9.10
2023-02-06T09:26:17.151Z,7.50
2023-02-06T09:27:17.117Z,8.10
2023-02-06T09:28:17.097Z,9.10
2023-02-06T09:29:17.100Z,8.40
2023-02-06T09:30:17.091Z,9.00
2023-02-06T09:31:17.149Z,9.80
2023-02-06T09:32:17.037Z,10.40
2023-02-06T09:33:17.041Z,10.50
2023-02-06T09:34:17.018Z,10.80
2023-02-06T09:35:17.034Z,11.00
2023-02-06T09:36:16.978Z,12.20
2023-02-06T09:37:17.018Z,11.50
2023-02-06T09:38:16.955Z,11.40
2023-02-06T09:39:17.010Z,10.50
2023-02-06T09:40:17.014Z,12.90
2023-02-06T09:41:16.987Z,11.10
2023-02-06T09:42:16.911Z,11.00
2023-02-06T09:43:16.929Z,9.40
2023-02-06T09:44:16.923Z,9.40
2023-02-06T09:45:16.877Z,9.50
2023-02-06T09:46:16.905Z,10.00
2023-02-06T09:47:16.869Z,10.10
2023-02-06T09:48:16.888Z,8.90
2023-02-06T09:49:16.908Z,9.40
2023-02-06T09:50:16.845Z,9.50
2023-02-06T09:51:16.829Z,9.40
2023-02-06T09:52:16.872Z,9.40
2023-02-06T09:53:16.789Z,8.80
2023-02-06T09:54:16.806Z,9.40
2023-02-06T09:55:16.795Z,9.60
2023-02-06T09:56:16.809Z,8.60
2023-02-06T09:57:16.744Z,9.50
2023-02-06T09:58:16.745Z,10.60
2023-02-06T09:59:17.655Z,10.30
2023-02-06T10:00:16.750Z,9.80
2023-02-06T10:01:16.788Z,10.20
2023-02-06T10:02:16.698Z,9.30
2023-02-06T10:03:16.675Z,10.70
2023-02-06T10:04:16.697Z,9.50
2023-02-06T10:05:16.674Z,10.00
2023-02-06T10:06:16.665Z,9.90
2023-02-06T10:07:16.660Z,9.70
2023-02-06T10:08:16.638Z,10.20
2023-02-06T10:09:16.651Z,9.70
2023-02-06T10:10:16.701Z,10.20
2023-02-06T10:11:16.960Z,9.60
2023-02-06T10:12:16.591Z,8.90
2023-02-06T10:13:16.569Z,10.60
2023-02-06T10:14:16.610Z,9.20
2023-02-06T10:15:16.574Z,8.60
2023-02-06T10:16:16.586Z,9.60
2023-02-06T10:17:16.529Z,9.00
2023-02-06T10:18:16.501Z,9.20
2023-02-06T10:19:16.565Z,10.20
2023-02-06T10:20:16.527Z,10.80
2023-02-06T10:21:16.472Z,10.30
2023-02-06T10:22:16.488Z,10.10
2023-02-06T10:23:16.465Z,9.40
2023-02-06T10:24:16.457Z,10.50
2023-02-06T10:25:16.658Z,9.60
2023-02-06T10:26:16.423Z,9.40
2023-02-06T10:27:16.409Z,11.30
2023-02-06T10:28:16.444Z,10.30
2023-02-06T10:29:16.898Z,10.80
2023-02-06T10:30:16.375Z,10.50
2023-02-06T10:31:16.503Z,11.30
2023-02-06T10:32:16.414Z,10.10
2023-02-06T10:33:25.251Z,10.50
2023-02-06T10:34:16.367Z,10.60
2023-02-06T10:35:16.341Z,11.20
2023-02-06T10:36:16.340Z,10.90
2023-02-06T10:37:16.381Z,11.40
2023-02-06T10:38:16.341Z,11.90
2023-02-06T10:39:16.357Z,11.90
2023-02-06T10:40:16.346Z,11.40
2023-02-06T10:41:16.277Z,11.90
2023-02-06T10:42:16.250Z,13.30
2023-02-06T10:43:16.260Z,12.00
2023-02-06T10:44:16.266Z,12.50
2023-02-06T10:45:20.085Z,12.50
2023-02-06T10:46:16.242Z,12.10
2023-02-06T10:47:16.191Z,13.20
2023-02-06T10:48:16.229Z,13.20
2023-02-06T10:49:16.283Z,11.20
2023-02-06T10:50:16.280Z,12.30
2023-02-06T10:51:16.192Z,11.20
2023-02-06T10:52:16.218Z,11.10
2023-02-06T10:53:16.170Z,11.50
2023-02-06T10:54:16.152Z,10.70
2023-02-06T10:55:16.108Z,11.60
2023-02-06T10:56:16.129Z,11.70
2023-02-06T10:57:16.153Z,12.50
2023-02-06T10:58:16.076Z,10.70
2023-02-06T10:59:16.108Z,11.40
2023-02-06T11:00:16.163Z,11.10
2023-02-06T11:01:25.539Z,10.30
2023-02-06T11:02:16.183Z,12.00
2023-02-06T11:03:25.253Z,11.90
2023-02-06T11:04:16.051Z,11.50
2023-02-06T11:05:15.992Z,11.90
2023-02-06T11:06:15.983Z,12.20
2023-02-06T11:07:15.981Z,12.70
2023-02-06T11:08:15.961Z,11.50
2023-02-06T11:09:15.969Z,11.10
2023-02-06T11:10:15.964Z,11.20
2023-02-06T11:11:15.922Z,11.60
2023-02-06T11:12:15.913Z,11.30
2023-02-06T11:13:15.908Z,12.10
2023-02-06T11:14:15.903Z,12.20
2023-02-06T11:15:15.890Z,12.10
2023-02-06T11:16:15.907Z,12.30
2023-02-06T11:17:15.875Z,11.50
2023-02-06T11:18:15.849Z,12.40
2023-02-06T11:19:15.905Z,12.80
2023-02-06T11:20:16.177Z,13.50
2023-02-06T11:21:15.816Z,11.90
2023-02-06T11:22:15.806Z,13.60
2023-02-06T11:23:15.833Z,14.40
2023-02-06T11:24:15.801Z,14.40
2023-02-06T11:25:15.782Z,14.90
2023-02-06T11:26:15.764Z,14.70
2023-02-06T11:27:15.743Z,14.20
2023-02-06T11:28:15.807Z,14.30
2023-02-06T11:29:15.749Z,13.50
2023-02-06T11:30:15.724Z,13.00
2023-02-06T11:31:15.732Z,12.80
2023-02-06T11:32:15.755Z,12.90
2023-02-06T11:33:15.693Z,12.10
2023-02-06T11:34:15.698Z,12.30
2023-02-06T11:35:15.661Z,11.00
2023-02-06T11:36:15.649Z,11.20
2023-02-06T11:37:15.651Z,11.70
2023-02-06T11:38:15.638Z,12.80
2023-02-06T11:39:15.632Z,17.70
2023-02-06T11:40:15.602Z,15.70
2023-02-06T11:41:15.609Z,12.20
2023-02-06T11:42:15.584Z,11.80
2023-02-06T11:43:15.571Z,11.30
2023-02-06T11:44:16.012Z,11.30
2023-02-06T11:45:15.553Z,11.80
2023-02-06T11:46:15.658Z,11.70
2023-02-06T11:47:15.535Z,13.00
2023-02-06T11:48:15.514Z,10.90
2023-02-06T11:49:15.519Z,10.90
2023-02-06T11:50:15.499Z,10.20
2023-02-06T11:51:15.480Z,10.50
2023-02-06T11:52:15.480Z,10.70
2023-02-06T11:53:15.463Z,11.00
2023-02-06T11:54:15.465Z,10.10
2023-02-06T11:55:15.444Z,16.40
2023-02-06T11:56:15.427Z,16.80
2023-02-06T11:57:15.418Z,16.20
2023-02-06T11:58:15.405Z,13.20
2023-02-06T11:59:15.407Z,14.00
2023-02-06T12:00:15.388Z,12.50
2023-02-06T12:01:15.376Z,12.70
2023-02-06T12:02:15.394Z,11.00
2023-02-06T12:03:15.677Z,11.60
2023-02-06T12:04:15.350Z,10.90
2023-02-06T12:05:15.326Z,11.60
2023-02-06T12:06:15.317Z,11.90
2023-02-06T12:07:15.316Z,11.30
2023-02-06T12:08:15.329Z,10.90
2023-02-06T12:09:15.315Z,11.70
2023-02-06T12:10:15.286Z,12.00
2023-02-06T12:11:15.259Z,13.20
2023-02-06T12:12:15.253Z,11.70
2023-02-06T12:13:15.237Z,12.30
2023-02-06T12:14:15.256Z,11.60
2023-02-06T12:15:39.732Z,12.10
2023-02-06T12:16:15.294Z,12.80
2023-02-06T12:17:15.190Z,12.40
2023-02-06T12:18:15.185Z,13.30
2023-02-06T12:19:15.186Z,11.20
2023-02-06T12:20:15.183Z,11.40
2023-02-06T12:21:15.150Z,12.00
2023-02-06T12:22:15.143Z,13.00
2023-02-06T12:23:15.127Z,12.10
2023-02-06T12:24:15.128Z,12.00
2023-02-06T12:25:15.803Z,11.40
2023-02-06T12:26:15.096Z,11.50
2023-02-06T12:27:15.092Z,12.50
2023-02-06T12:28:15.107Z,13.00
2023-02-06T12:29:15.086Z,11.90
2023-02-06T12:30:15.058Z,12.50
2023-02-06T12:31:15.156Z,13.40
2023-02-06T12:32:15.057Z,12.00
2023-02-06T12:33:15.017Z,12.30
2023-02-06T12:34:15.018Z,11.60
2023-02-06T12:35:14.996Z,11.10
2023-02-06T12:36:14.983Z,11.50
2023-02-06T12:37:14.977Z,12.30
2023-02-06T12:38:14.966Z,11.90
2023-02-06T12:39:17.315Z,12.10
2023-02-06T12:40:14.946Z,11.80
2023-02-06T12:41:14.929Z,10.90
2023-02-06T12:42:14.915Z,11.00
2023-02-06T12:43:14.925Z,11.70
2023-02-06T12:44:14.905Z,11.40
2023-02-06T12:45:14.882Z,12.70
2023-02-06T12:46:14.913Z,11.80
2023-02-06T12:47:14.864Z,11.70
2023-02-06T12:48:14.844Z,11.30
2023-02-06T12:49:14.850Z,11.40
2023-02-06T12:50:14.855Z,11.40
2023-02-06T12:51:14.811Z,11.20
2023-02-06T12:52:14.842Z,11.40
2023-02-06T12:53:14.789Z,11.30
2023-02-06T12:54:14.802Z,11.00
2023-02-06T12:55:14.781Z,11.50
2023-02-06T12:56:14.773Z,11.50
2023-02-06T12:57:14.754Z,12.10
2023-02-06T12:58:14.742Z,12.00
2023-02-06T12:59:14.741Z,11.30
2023-02-06T13:00:14.718Z,11.40
2023-02-06T13:01:28.639Z,11.60
2023-02-06T13:02:14.800Z,11.50
2023-02-06T13:03:14.705Z,11.70
2023-02-06T13:04:14.693Z,11.20
2023-02-06T13:05:14.665Z,11.00
2023-02-06T13:06:14.650Z,12.40